LETL

Details ICAO LETL
Name Teruel PLATA
Region Spain
Timezone Europe/Madrid (UTC+2.0)
Plans Departing 12
Arriving 10
Stats Elevation 0 ft / 0 m (AMSL)
Location 40.411111° -1.218813°
Runways 1
Magnetic Variation 0.030° E
Sunrise 2018-05-24 04:42:54 UTC / 2018-05-24 06:42:54 Local
Sunset 2018-05-24 19:23:24 UTC / 2018-05-24 21:23:24 Local
Advertisement - Login to hide

Runways

ID Width Length Bearing (true) Bearing (mag) Surface Threshold Offset Overrun Length
18 148 ft / 45 m 9,277 ft / 2,828 m 177.23° 177.20° Asphalt 984 ft / 300 m 0 ft / 0 m
36 148 ft / 45 m 9,277 ft / 2,828 m 357.23° 357.20° Asphalt 164 ft / 50 m 0 ft / 0 m

Map

Weather


0- 5 10 15 20 25 30 35+ Temperature / ° C

Clouds and Precipitation
Forecast for 2018-05-24 06:00 UTC. Updated an hour ago

Ground ~20,000 ft ~40,000 ft Winds

METAR

LETL 240630Z AUTO 18005KT 9999 NCD 14/05 Q1019

TAF

Not found
Warning: Do not use this data for real-world aviation or navigation. No guarantee of current accuracy is given.